Time;durP1;ratioP1;P1;durP2;ratioP2;P2;SDS_P1;SDS_P2;PMS_P1;PMS_P2;Temp;Humidity;BMP_temperature;BMP_pressure;BME280_temperature;BME280_humidity;BME280_pressure;Samples;Min_cycle;Max_cycle;Signal;HPM_P1;HPM_P2
2023/05/23 00:01:41;;;;;;;5.53;5.07;;;27.30;57.40;;;;;;4990959;28;20435;-79
2023/05/23 00:04:15;;;;;;;5.20;4.80;;;27.30;57.40;;;;;;4991460;28;20530;-78
2023/05/23 00:06:45;;;;;;;5.53;5.13;;;27.30;57.60;;;;;;4984312;28;20503;-78
2023/05/23 00:09:14;;;;;;;5.70;5.30;;;27.30;57.60;;;;;;4991684;28;20453;-79
2023/05/23 00:11:44;;;;;;;7.53;5.20;;;27.30;57.60;;;;;;4987579;28;20428;-79
2023/05/23 00:14:14;;;;;;;5.70;5.20;;;27.30;57.60;;;;;;4993199;28;20457;-79
2023/05/23 00:16:43;;;;;;;6.00;5.40;;;27.30;57.60;;;;;;4992765;28;20525;-78
2023/05/23 00:19:13;;;;;;;6.97;5.30;;;27.30;57.70;;;;;;4992336;28;20461;-79
2023/05/23 00:21:42;;;;;;;5.20;4.80;;;27.30;57.80;;;;;;4983743;28;20419;-79
2023/05/23 00:24:10;;;;;;;6.13;4.90;;;27.20;57.70;;;;;;4992321;28;20484;-78
2023/05/23 00:26:38;;;;;;;4.80;4.40;;;27.30;58.00;;;;;;4991125;28;20514;-79
2023/05/23 00:29:07;;;;;;;5.83;5.40;;;27.20;57.90;;;;;;4992229;28;20424;-79
2023/05/23 00:31:37;;;;;;;5.57;5.13;;;27.20;57.80;;;;;;4991883;28;20449;-79
2023/05/23 00:34:05;;;;;;;5.37;4.87;;;27.20;58.00;;;;;;4991044;28;20457;-79
2023/05/23 00:36:36;;;;;;;5.47;5.00;;;27.20;58.10;;;;;;4991803;28;20449;-79
2023/05/23 00:39:04;;;;;;;5.87;5.30;;;27.20;58.20;;;;;;4991542;28;20420;-79
2023/05/23 00:41:32;;;;;;;5.47;5.00;;;27.20;58.20;;;;;;4992023;28;20419;-78
2023/05/23 00:44:00;;;;;;;5.20;4.80;;;27.10;58.20;;;;;;4990430;28;20449;-79
2023/05/23 00:46:28;;;;;;;5.27;4.87;;;27.10;58.10;;;;;;4991904;28;20482;-79
2023/05/23 00:48:58;;;;;;;5.00;4.60;;;27.10;58.30;;;;;;4991467;28;20417;-78
2023/05/23 00:51:26;;;;;;;5.60;4.97;;;27.10;58.30;;;;;;4989649;28;20444;-79
2023/05/23 00:53:54;;;;;;;4.70;4.40;;;27.10;58.30;;;;;;4991419;28;20448;-80
2023/05/23 00:56:25;;;;;;;5.13;4.80;;;27.10;58.30;;;;;;4990694;28;20453;-79
2023/05/23 00:58:53;;;;;;;5.37;4.97;;;27.10;58.50;;;;;;4991836;28;20412;-79
2023/05/23 01:01:23;;;;;;;5.73;5.17;;;27.10;58.40;;;;;;4991470;28;20453;-78
2023/05/23 01:03:51;;;;;;;5.07;4.67;;;27.10;58.40;;;;;;4991396;28;20862;-79
2023/05/23 01:06:20;;;;;;;6.57;4.53;;;27.10;58.60;;;;;;4990029;28;20424;-78
2023/05/23 01:08:48;;;;;;;4.43;4.13;;;27.10;58.50;;;;;;4990893;28;20508;-78
2023/05/23 01:11:20;;;;;;;4.60;4.30;;;27.10;58.40;;;;;;4991124;28;20460;-79
2023/05/23 01:13:53;;;;;;;5.10;4.70;;;27.10;58.50;;;;;;4990744;28;20506;-78
2023/05/23 01:16:27;;;;;;;5.20;4.90;;;27.10;58.50;;;;;;4992786;28;20478;-78
2023/05/23 01:18:59;;;;;;;4.83;4.50;;;27.00;58.60;;;;;;4997299;28;20518;-78
2023/05/23 01:21:29;;;;;;;5.00;4.60;;;27.10;58.80;;;;;;4991737;28;20441;-80
2023/05/23 01:24:36;;;;;;;5.07;4.67;;;27.10;58.80;;;;;;4991275;28;20432;-79
2023/05/23 01:27:09;;;;;;;4.87;4.50;;;27.00;58.70;;;;;;4948312;28;20925;-79
2023/05/23 01:29:39;;;;;;;4.93;4.63;;;27.00;58.80;;;;;;4991623;28;20516;-78
2023/05/23 01:32:10;;;;;;;4.90;4.37;;;27.00;58.90;;;;;;4990560;28;20528;-79
2023/05/23 01:34:39;;;;;;;7.47;5.40;;;27.00;58.90;;;;;;4991647;28;20854;-79
2023/05/23 01:37:08;;;;;;;6.43;5.87;;;27.00;59.00;;;;;;4999968;28;20457;-78
2023/05/23 01:39:36;;;;;;;7.13;5.07;;;27.00;58.80;;;;;;4990875;28;20449;-78
2023/05/23 01:42:05;;;;;;;6.23;4.73;;;27.00;59.10;;;;;;4991447;28;20449;-78
2023/05/23 01:44:33;;;;;;;5.70;5.20;;;27.00;58.90;;;;;;4990107;28;20461;-78
2023/05/23 01:47:03;;;;;;;5.13;4.73;;;27.00;59.00;;;;;;4994651;28;20423;-79
2023/05/23 01:49:31;;;;;;;5.60;5.20;;;27.00;59.00;;;;;;4994939;28;20511;-79
2023/05/23 01:52:00;;;;;;;5.17;4.80;;;27.00;59.10;;;;;;4995202;28;20874;-79
2023/05/23 01:54:29;;;;;;;5.90;5.30;;;27.00;59.00;;;;;;4994716;28;20487;-79
2023/05/23 01:56:57;;;;;;;5.80;5.40;;;26.90;59.10;;;;;;4994655;28;20507;-78
2023/05/23 01:59:25;;;;;;;6.00;5.50;;;26.90;59.10;;;;;;4994558;28;20466;-79
2023/05/23 02:01:53;;;;;;;5.03;4.70;;;26.90;59.20;;;;;;4994998;28;20445;-78
2023/05/23 02:04:23;;;;;;;6.73;6.13;;;26.90;59.30;;;;;;4994652;28;20500;-78
2023/05/23 02:06:51;;;;;;;7.03;5.30;;;26.90;59.20;;;;;;4994962;28;20448;-78
2023/05/23 02:09:19;;;;;;;5.70;5.23;;;26.90;59.20;;;;;;4993878;28;20424;-79
2023/05/23 02:11:47;;;;;;;5.20;4.80;;;26.90;59.30;;;;;;4994195;28;20428;-78
2023/05/23 02:14:17;;;;;;;6.07;5.57;;;26.90;59.40;;;;;;4994288;28;20980;-79
2023/05/23 02:16:45;;;;;;;5.40;5.00;;;26.90;59.30;;;;;;4994252;28;20508;-78
2023/05/23 02:19:13;;;;;;;5.80;5.20;;;26.90;59.30;;;;;;4993854;28;20440;-78
2023/05/23 02:21:42;;;;;;;5.43;4.93;;;26.90;59.30;;;;;;4986292;28;20982;-79
2023/05/23 02:24:10;;;;;;;6.27;5.63;;;26.80;59.30;;;;;;4994651;28;20455;-79
2023/05/23 02:26:38;;;;;;;5.50;5.10;;;26.90;59.40;;;;;;4993750;28;20503;-78
2023/05/23 02:29:06;;;;;;;6.13;5.63;;;26.90;59.40;;;;;;5001467;28;20464;-78
2023/05/23 02:31:34;;;;;;;5.80;5.30;;;26.80;59.30;;;;;;4995083;28;20449;-79
2023/05/23 02:34:02;;;;;;;5.50;5.07;;;26.80;59.40;;;;;;4994026;28;20546;-78
2023/05/23 02:36:32;;;;;;;5.80;5.30;;;26.80;59.40;;;;;;4994071;28;20511;-79
2023/05/23 02:39:01;;;;;;;5.73;5.27;;;26.80;59.40;;;;;;4994243;28;20519;-78
2023/05/23 02:41:29;;;;;;;6.23;5.73;;;26.80;59.40;;;;;;4994334;28;20489;-78
2023/05/23 02:43:58;;;;;;;6.07;5.47;;;26.80;59.50;;;;;;4994278;28;20475;-79
2023/05/23 02:46:26;;;;;;;5.10;4.70;;;26.80;59.40;;;;;;4993282;28;20449;-79
2023/05/23 02:48:54;;;;;;;5.93;5.43;;;26.80;59.40;;;;;;4994441;28;20429;-79
2023/05/23 02:51:22;;;;;;;5.50;5.07;;;26.80;59.40;;;;;;4994014;28;20445;-77
2023/05/23 02:53:50;;;;;;;6.17;5.57;;;26.80;59.40;;;;;;4993979;28;20480;-78
2023/05/23 02:56:21;;;;;;;6.30;5.27;;;26.80;59.50;;;;;;4993111;28;20449;-79
2023/05/23 02:58:49;;;;;;;5.70;5.30;;;26.80;59.50;;;;;;4989410;28;20446;-78
2023/05/23 03:01:17;;;;;;;5.63;5.07;;;26.80;59.40;;;;;;4988704;28;20465;-79
2023/05/23 03:03:45;;;;;;;7.10;5.60;;;26.80;60.20;;;;;;4993361;28;20440;-78
2023/05/23 03:06:15;;;;;;;6.33;5.43;;;26.80;59.50;;;;;;4993321;28;20449;-79
2023/05/23 03:08:44;;;;;;;5.30;4.80;;;26.80;60.00;;;;;;4984375;28;20426;-79
2023/05/23 03:11:12;;;;;;;5.23;4.83;;;26.70;59.50;;;;;;4987150;28;20535;-78
2023/05/23 03:13:42;;;;;;;5.67;5.17;;;26.70;59.50;;;;;;4993010;28;20480;-79
2023/05/23 03:16:11;;;;;;;6.50;5.50;;;26.80;59.60;;;;;;4993443;28;20476;-79
2023/05/23 03:18:40;;;;;;;5.27;4.87;;;26.70;59.60;;;;;;4993559;28;20423;-79
2023/05/23 03:21:09;;;;;;;5.40;5.00;;;26.80;59.50;;;;;;4993294;28;20428;-79
2023/05/23 03:23:37;;;;;;;6.30;5.00;;;26.70;59.50;;;;;;4993890;28;20477;-79
2023/05/23 03:26:06;;;;;;;6.07;5.40;;;26.70;59.50;;;;;;4990486;28;20500;-79
2023/05/23 03:28:35;;;;;;;6.37;5.77;;;26.70;59.50;;;;;;4992932;28;20420;-79
2023/05/23 03:31:06;;;;;;;6.17;5.67;;;26.70;59.60;;;;;;4993068;28;20441;-79
2023/05/23 03:33:34;;;;;;;6.03;5.43;;;26.70;59.50;;;;;;4993127;28;20441;-79
2023/05/23 03:36:07;;;;;;;6.10;5.60;;;26.70;59.50;;;;;;4992135;28;21020;-79
2023/05/23 03:38:36;;;;;;;5.83;5.33;;;26.70;59.50;;;;;;4993192;28;20441;-78
2023/05/23 03:41:04;;;;;;;5.97;5.40;;;26.60;59.60;;;;;;4990769;28;20420;-78
2023/05/23 03:43:32;;;;;;;9.60;5.37;;;26.70;59.50;;;;;;4992795;28;20404;-78
2023/05/23 03:46:01;;;;;;;5.57;5.07;;;26.60;59.50;;;;;;4992708;28;20416;-79
2023/05/23 03:48:30;;;;;;;6.40;5.27;;;26.70;59.50;;;;;;4992223;28;20426;-79
2023/05/23 03:50:59;;;;;;;6.63;5.93;;;26.60;59.40;;;;;;4992453;28;20447;-79
2023/05/23 03:53:27;;;;;;;5.50;5.10;;;26.60;59.40;;;;;;4993136;28;20419;-79
2023/05/23 03:55:55;;;;;;;6.10;5.37;;;26.60;59.50;;;;;;4987269;28;20484;-79
2023/05/23 03:58:23;;;;;;;6.57;5.83;;;26.60;59.40;;;;;;4993505;28;20416;-79
2023/05/23 04:00:53;;;;;;;6.03;5.13;;;26.70;59.60;;;;;;4994429;28;20472;-79
2023/05/23 04:03:21;;;;;;;5.90;5.50;;;26.60;59.40;;;;;;4991268;28;20457;-80
2023/05/23 04:05:52;;;;;;;5.73;5.23;;;26.60;59.40;;;;;;4992741;28;20441;-79
2023/05/23 04:08:20;;;;;;;6.50;5.90;;;26.60;59.50;;;;;;4990357;28;20449;-80
2023/05/23 04:10:49;;;;;;;5.83;5.23;;;26.60;59.40;;;;;;4993069;28;20460;-79
2023/05/23 04:13:17;;;;;;;8.97;5.17;;;26.60;59.40;;;;;;4992341;28;20449;-79
2023/05/23 04:15:47;;;;;;;6.30;5.70;;;26.60;59.40;;;;;;4992164;28;20461;-78
2023/05/23 04:18:16;;;;;;;5.37;4.90;;;26.60;59.40;;;;;;4993420;28;20494;-77
2023/05/23 04:20:44;;;;;;;5.97;5.20;;;26.60;59.40;;;;;;4987605;28;20420;-78
2023/05/23 04:23:14;;;;;;;5.60;5.20;;;26.60;59.50;;;;;;4996394;28;20448;-77
2023/05/23 04:25:42;;;;;;;9.37;5.30;;;26.60;59.40;;;;;;4992539;28;20420;-79
2023/05/23 04:28:11;;;;;;;8.10;5.80;;;26.60;59.50;;;;;;4993614;28;20544;-78
2023/05/23 04:30:39;;;;;;;6.63;5.60;;;26.60;59.50;;;;;;4990933;28;20457;-78
2023/05/23 04:33:07;;;;;;;5.13;4.53;;;26.60;59.50;;;;;;4992095;28;20460;-78
2023/05/23 04:35:37;;;;;;;6.00;5.50;;;26.60;59.40;;;;;;4987144;28;20527;-79
2023/05/23 04:38:06;;;;;;;5.83;5.43;;;26.60;59.30;;;;;;4992105;28;20432;-78
2023/05/23 04:40:35;;;;;;;7.30;5.50;;;26.60;59.20;;;;;;4991012;28;20449;-78
2023/05/23 04:43:03;;;;;;;5.23;4.73;;;26.60;59.20;;;;;;4990310;28;20428;-78
2023/05/23 04:45:31;;;;;;;5.93;5.27;;;26.50;59.20;;;;;;4991950;28;20428;-78
2023/05/23 04:47:59;;;;;;;5.20;4.70;;;26.60;59.30;;;;;;4991657;28;20445;-78
2023/05/23 04:50:31;;;;;;;5.90;5.40;;;26.50;59.20;;;;;;4990483;28;20453;-77
2023/05/23 04:53:00;;;;;;;5.50;5.00;;;26.50;59.30;;;;;;4989366;28;20412;-77
2023/05/23 04:55:28;;;;;;;5.67;5.17;;;26.50;59.20;;;;;;4990830;28;20550;-78
2023/05/23 04:57:57;;;;;;;5.67;5.17;;;26.50;59.10;;;;;;4991687;28;20474;-78
2023/05/23 05:00:25;;;;;;;7.00;5.30;;;26.60;59.20;;;;;;4992306;28;20412;-78
2023/05/23 05:02:53;;;;;;;6.57;5.73;;;26.50;59.10;;;;;;4992072;28;20456;-78
2023/05/23 05:05:22;;;;;;;5.97;5.47;;;26.50;59.10;;;;;;4988318;28;20446;-78
2023/05/23 05:07:50;;;;;;;6.27;5.30;;;26.50;59.10;;;;;;4987187;28;20532;-78
2023/05/23 05:10:18;;;;;;;6.27;5.40;;;26.50;59.20;;;;;;4987178;28;20453;-78
2023/05/23 05:12:48;;;;;;;5.00;4.63;;;26.50;59.10;;;;;;4988393;28;20445;-79
2023/05/23 05:15:18;;;;;;;5.30;4.90;;;26.50;59.00;;;;;;4989954;28;20447;-79
2023/05/23 05:17:46;;;;;;;6.33;5.57;;;26.40;59.00;;;;;;5001068;28;20448;-79
2023/05/23 05:20:16;;;;;;;5.77;4.77;;;26.40;59.10;;;;;;4994681;28;20484;-78
2023/05/23 05:22:45;;;;;;;5.23;4.73;;;26.40;58.90;;;;;;4988920;28;20505;-79
2023/05/23 05:25:13;;;;;;;5.50;5.00;;;26.50;59.60;;;;;;4992568;28;20461;-78
2023/05/23 05:27:42;;;;;;;5.10;4.63;;;26.40;58.80;;;;;;4995674;28;20423;-78
2023/05/23 05:30:11;;;;;;;6.43;4.67;;;26.40;59.10;;;;;;4996492;28;20444;-78
2023/05/23 05:32:40;;;;;;;5.57;5.07;;;26.40;59.00;;;;;;4995476;28;20397;-79
2023/05/23 05:35:12;;;;;;;6.80;5.10;;;26.40;59.00;;;;;;5017059;28;20440;-80
2023/05/23 05:37:40;;;;;;;7.20;5.17;;;26.40;58.90;;;;;;5020769;28;20464;-80
2023/05/23 05:40:09;;;;;;;6.60;5.40;;;26.40;58.80;;;;;;5014459;28;20412;-80
2023/05/23 05:42:37;;;;;;;5.60;5.10;;;26.40;58.70;;;;;;5019089;28;20411;-80
2023/05/23 05:45:06;;;;;;;5.30;4.80;;;26.40;58.80;;;;;;5019581;28;20445;-79
2023/05/23 05:47:35;;;;;;;6.07;4.97;;;26.40;58.70;;;;;;5018519;28;20449;-76
2023/05/23 05:50:06;;;;;;;7.90;5.43;;;26.40;58.80;;;;;;5018926;28;20520;-80
2023/05/23 05:52:37;;;;;;;5.13;4.70;;;26.40;58.70;;;;;;5013254;28;20480;-79
2023/05/23 05:55:06;;;;;;;8.43;5.20;;;26.30;58.70;;;;;;4997878;28;20567;-78
2023/05/23 05:57:37;;;;;;;9.43;5.47;;;26.30;58.80;;;;;;4994569;28;20537;-78
2023/05/23 06:00:13;;;;;;;6.87;4.87;;;26.30;58.70;;;;;;4994276;28;20457;-79
2023/05/23 06:02:41;;;;;;;6.00;5.07;;;26.30;58.60;;;;;;4994668;28;20469;-78
2023/05/23 06:05:12;;;;;;;7.10;5.17;;;26.30;58.60;;;;;;4995879;28;20465;-79
2023/05/23 06:07:40;;;;;;;5.40;4.90;;;26.30;58.70;;;;;;4993796;28;20477;-78
2023/05/23 06:10:12;;;;;;;5.40;4.90;;;26.30;58.60;;;;;;4994132;28;20522;-77
2023/05/23 06:12:41;;;;;;;5.30;4.80;;;26.30;58.60;;;;;;4992127;28;20478;-77
2023/05/23 06:15:09;;;;;;;5.47;4.93;;;26.30;58.60;;;;;;4994698;28;20473;-78
2023/05/23 06:17:37;;;;;;;6.17;4.70;;;26.30;58.50;;;;;;4993577;28;20445;-78
2023/05/23 06:20:06;;;;;;;5.60;4.90;;;26.30;58.50;;;;;;4994531;28;20460;-78
2023/05/23 06:22:36;;;;;;;5.97;4.67;;;26.30;58.60;;;;;;4993904;28;20475;-79
2023/05/23 06:25:06;;;;;;;6.03;4.60;;;26.30;58.40;;;;;;4994498;28;20543;-77
2023/05/23 06:27:34;;;;;;;5.53;4.63;;;26.30;58.40;;;;;;4994021;28;20444;-77
2023/05/23 06:30:02;;;;;;;5.33;4.53;;;26.30;58.30;;;;;;4996011;28;20503;-77
2023/05/23 06:32:31;;;;;;;4.87;4.47;;;26.30;58.40;;;;;;4995444;28;20484;-77
2023/05/23 06:34:58;;;;;;;5.10;4.30;;;26.30;58.30;;;;;;4994005;28;20447;-79
2023/05/23 06:37:27;;;;;;;5.60;4.50;;;26.30;58.30;;;;;;4994391;28;20427;-78
2023/05/23 06:39:56;;;;;;;5.07;4.57;;;26.30;58.30;;;;;;4989864;28;20445;-79
2023/05/23 06:42:24;;;;;;;4.43;4.13;;;26.30;58.10;;;;;;4992109;28;20428;-78
2023/05/23 06:44:52;;;;;;;7.73;4.10;;;26.30;58.20;;;;;;4987008;28;20511;-78
2023/05/23 06:47:22;;;;;;;4.97;4.47;;;26.30;58.20;;;;;;4994341;28;20448;-80
2023/05/23 06:49:50;;;;;;;5.03;4.13;;;26.30;58.20;;;;;;4993003;28;20476;-79
2023/05/23 06:52:18;;;;;;;5.37;4.73;;;26.30;58.10;;;;;;4994223;28;20491;-80
2023/05/23 06:54:46;;;;;;;4.70;4.17;;;26.30;58.20;;;;;;4993647;28;20465;-79
2023/05/23 06:57:15;;;;;;;7.50;4.70;;;26.30;58.00;;;;;;4990528;28;20463;-79
2023/05/23 06:59:43;;;;;;;5.23;4.70;;;26.30;58.00;;;;;;4992890;28;20451;-78
2023/05/23 07:02:11;;;;;;;5.93;4.40;;;26.30;58.00;;;;;;4994471;28;20424;-79
2023/05/23 07:04:39;;;;;;;6.60;4.43;;;26.30;58.10;;;;;;4994460;28;20464;-79
2023/05/23 07:07:06;;;;;;;4.97;4.13;;;26.30;57.90;;;;;;4992924;28;20456;-79
2023/05/23 07:09:35;;;;;;;5.50;4.90;;;26.30;58.00;;;;;;4987975;28;20990;-79
2023/05/23 07:12:03;;;;;;;6.97;4.33;;;26.30;58.00;;;;;;4990247;28;20494;-79
2023/05/23 07:14:34;;;;;;;6.23;3.90;;;26.30;58.00;;;;;;4985322;28;20986;-79
2023/05/23 07:17:02;;;;;;;4.23;3.83;;;26.20;57.90;;;;;;4993647;28;20477;-78
2023/05/23 07:19:31;;;;;;;5.17;4.67;;;26.20;58.60;;;;;;4993840;28;20449;-79
2023/05/23 07:21:59;;;;;;;5.70;4.30;;;26.30;57.90;;;;;;4993193;28;20507;-78
2023/05/23 07:24:27;;;;;;;6.63;3.93;;;26.30;57.70;;;;;;4991916;28;20443;-78
2023/05/23 07:26:55;;;;;;;6.93;4.10;;;26.20;57.80;;;;;;4992427;28;20520;-77
2023/05/23 07:29:23;;;;;;;4.67;4.00;;;26.20;57.60;;;;;;4991119;28;20476;-78
2023/05/23 07:31:53;;;;;;;4.80;4.20;;;26.20;57.70;;;;;;4993793;28;20408;-79
2023/05/23 07:34:21;;;;;;;4.87;4.30;;;26.20;57.70;;;;;;4989996;28;20476;-79
2023/05/23 07:36:49;;;;;;;5.57;3.93;;;26.20;57.70;;;;;;4993193;28;20470;-78
2023/05/23 07:39:20;;;;;;;4.23;3.80;;;26.30;57.70;;;;;;4992462;28;20437;-79
2023/05/23 07:41:49;;;;;;;6.57;4.17;;;26.20;57.50;;;;;;4992848;28;20457;-78
2023/05/23 07:44:18;;;;;;;5.10;3.70;;;26.20;57.50;;;;;;4992103;28;20440;-79
2023/05/23 07:46:50;;;;;;;4.30;3.90;;;26.20;57.50;;;;;;4993874;28;20424;-79
2023/05/23 07:49:20;;;;;;;4.30;3.90;;;26.20;57.50;;;;;;4993087;28;20427;-78
2023/05/23 07:51:48;;;;;;;5.80;4.00;;;26.20;57.80;;;;;;4992720;28;20614;-78
2023/05/23 07:54:16;;;;;;;9.40;3.67;;;26.20;57.40;;;;;;4993232;28;20473;-78
2023/05/23 07:56:45;;;;;;;4.30;3.90;;;26.20;57.40;;;;;;4991444;28;20473;-79
2023/05/23 07:59:13;;;;;;;4.03;3.67;;;26.20;57.30;;;;;;4992416;28;20488;-78
2023/05/23 08:01:43;;;;;;;5.53;3.87;;;26.20;57.40;;;;;;4992725;28;20495;-77
2023/05/23 08:04:11;;;;;;;5.20;3.77;;;26.20;57.40;;;;;;4991637;28;20472;-78
2023/05/23 08:06:41;;;;;;;4.50;4.10;;;26.20;57.40;;;;;;4993388;28;20433;-77
2023/05/23 08:09:28;;;;;;;5.77;4.20;;;26.20;57.50;;;;;;4991806;28;20412;-81
2023/05/23 08:11:56;;;;;;;13.77;4.80;;;26.20;57.50;;;;;;4988941;28;20424;-78
2023/05/23 08:14:25;;;;;;;10.87;3.97;;;26.10;57.70;;;;;;4995921;28;20436;-79
2023/05/23 08:17:13;;;;;;;16.53;4.10;;;26.20;57.60;;;;;;4986331;28;20461;-79
2023/05/23 08:19:42;;;;;;;14.40;4.20;;;26.10;57.50;;;;;;4991122;28;20469;-79
2023/05/23 08:22:11;;;;;;;18.60;4.73;;;26.10;57.60;;;;;;4992539;28;20441;-78
2023/05/23 08:24:40;;;;;;;14.90;4.40;;;26.20;57.40;;;;;;4992004;28;20492;-78
2023/05/23 08:27:08;;;;;;;20.40;4.13;;;26.10;57.30;;;;;;4992494;28;20408;-77
2023/05/23 08:29:37;;;;;;;9.17;4.30;;;26.10;57.20;;;;;;4992938;28;20420;-76
2023/05/23 08:32:05;;;;;;;10.60;4.53;;;26.10;57.30;;;;;;4992750;28;20434;-76
2023/05/23 08:34:33;;;;;;;10.73;4.40;;;26.10;57.40;;;;;;4991828;28;20541;-78
2023/05/23 08:37:02;;;;;;;7.20;3.73;;;26.10;57.20;;;;;;4991175;28;21056;-78
2023/05/23 08:39:32;;;;;;;8.87;4.07;;;26.10;57.30;;;;;;4979635;28;20495;-79
2023/05/23 08:42:00;;;;;;;11.43;4.30;;;26.10;57.10;;;;;;4972434;28;20491;-78
2023/05/23 08:44:29;;;;;;;7.10;3.93;;;26.10;57.10;;;;;;4971919;28;20473;-79
2023/05/23 08:46:57;;;;;;;7.77;3.87;;;26.20;57.10;;;;;;4971726;28;20420;-78
2023/05/23 08:49:25;;;;;;;7.67;3.80;;;26.20;56.90;;;;;;4971971;28;20528;-77
2023/05/23 08:51:54;;;;;;;9.13;3.87;;;26.10;56.90;;;;;;4991959;28;20428;-77
2023/05/23 08:54:22;;;;;;;5.27;3.77;;;26.20;56.90;;;;;;4991489;28;20485;-78
2023/05/23 08:56:52;;;;;;;9.60;4.00;;;26.20;56.80;;;;;;4992003;28;20476;-78
2023/05/23 08:59:20;;;;;;;10.00;4.13;;;26.20;56.60;;;;;;4992115;28;20476;-77
2023/05/23 09:01:49;;;;;;;6.70;3.87;;;26.20;56.50;;;;;;4992097;28;20423;-77
2023/05/23 09:04:17;;;;;;;7.40;3.30;;;26.30;56.50;;;;;;4991990;28;20457;-78
2023/05/23 09:06:45;;;;;;;5.57;3.97;;;26.30;56.20;;;;;;4992300;28;20486;-78
2023/05/23 09:09:13;;;;;;;5.67;3.90;;;26.40;56.20;;;;;;4991858;28;20428;-77
2023/05/23 09:11:44;;;;;;;9.43;3.73;;;26.60;55.80;;;;;;4991675;28;20431;-77
2023/05/23 09:14:16;;;;;;;5.40;3.40;;;26.70;55.70;;;;;;4992074;28;20462;-77
2023/05/23 09:16:46;;;;;;;5.70;3.20;;;26.90;55.20;;;;;;4991945;28;20440;-77
2023/05/23 09:19:14;;;;;;;5.70;3.77;;;27.00;54.90;;;;;;4991772;28;20424;-77
2023/05/23 09:21:43;;;;;;;12.13;3.50;;;27.10;54.50;;;;;;4992532;28;20450;-76
2023/05/23 09:24:11;;;;;;;7.30;3.60;;;27.10;54.10;;;;;;4991581;28;20480;-78
2023/05/23 09:26:39;;;;;;;8.20;4.20;;;27.20;53.90;;;;;;4991918;28;20449;-76
2023/05/23 09:29:08;;;;;;;4.63;3.60;;;27.20;54.00;;;;;;4992034;28;20510;-77
2023/05/23 09:31:37;;;;;;;7.53;3.70;;;27.20;53.80;;;;;;4992375;28;20500;-78
2023/05/23 09:34:05;;;;;;;6.53;3.40;;;27.20;53.90;;;;;;4993328;28;20518;-77
2023/05/23 09:36:35;;;;;;;6.00;3.33;;;27.20;53.80;;;;;;4988854;28;20447;-78
2023/05/23 09:39:04;;;;;;;6.10;3.57;;;27.20;54.40;;;;;;4984005;28;20420;-77
2023/05/23 09:41:34;;;;;;;9.50;3.40;;;27.20;53.60;;;;;;4991947;28;20503;-77
2023/05/23 09:44:06;;;;;;;8.07;3.80;;;27.20;53.70;;;;;;4992115;28;20436;-78
2023/05/23 09:46:37;;;;;;;6.07;3.37;;;27.10;53.40;;;;;;4991964;28;20514;-78
2023/05/23 09:49:16;;;;;;;4.87;3.50;;;27.10;53.50;;;;;;4983729;28;20515;-78
2023/05/23 09:51:44;;;;;;;8.40;3.70;;;27.00;53.50;;;;;;4991327;28;20474;-78
2023/05/23 09:54:12;;;;;;;5.80;4.10;;;27.00;53.60;;;;;;4991204;28;20474;-77
2023/05/23 09:56:42;;;;;;;5.83;3.60;;;26.90;53.80;;;;;;4991366;28;20423;-77
2023/05/23 09:59:10;;;;;;;4.13;3.37;;;27.00;54.00;;;;;;4992071;28;20412;-77
2023/05/23 10:01:43;;;;;;;5.40;3.97;;;27.10;53.80;;;;;;4991455;28;20420;-77
2023/05/23 10:04:11;;;;;;;6.63;3.73;;;27.20;53.50;;;;;;4991339;28;20490;-78
2023/05/23 10:06:42;;;;;;;5.27;3.33;;;27.30;53.20;;;;;;4992849;28;20420;-77
2023/05/23 10:09:14;;;;;;;3.80;3.40;;;27.30;52.90;;;;;;4994655;28;20448;-77
2023/05/23 10:12:34;;;;;;;7.10;3.13;;;27.40;53.00;;;;;;4994666;28;20435;-78
2023/05/23 10:15:03;;;;;;;4.00;3.00;;;27.50;52.80;;;;;;4975356;28;20447;-78
2023/05/23 10:17:37;;;;;;;7.77;3.10;;;27.80;52.80;;;;;;4994304;28;20447;-77
2023/05/23 10:20:08;;;;;;;5.60;3.40;;;28.00;52.20;;;;;;4992825;28;20883;-77
2023/05/23 10:22:36;;;;;;;4.37;3.57;;;28.10;51.60;;;;;;4994622;28;20508;-77
2023/05/23 10:25:05;;;;;;;5.93;3.30;;;27.90;51.40;;;;;;4986711;28;20460;-78
2023/05/23 10:27:33;;;;;;;4.87;3.23;;;27.80;51.70;;;;;;4994450;28;20441;-76
2023/05/23 10:30:01;;;;;;;5.47;3.73;;;27.70;51.80;;;;;;4994045;28;20453;-76
2023/05/23 10:32:30;;;;;;;5.50;3.27;;;27.70;52.00;;;;;;4994358;28;20445;-76
2023/05/23 10:35:04;;;;;;;7.50;3.50;;;27.70;51.90;;;;;;4994000;28;20438;-77
2023/05/23 10:37:38;;;;;;;5.40;3.17;;;27.80;52.10;;;;;;4994487;28;20436;-77
2023/05/23 10:40:11;;;;;;;5.03;2.70;;;27.90;51.60;;;;;;4986430;28;20460;-77
2023/05/23 10:42:43;;;;;;;5.60;3.30;;;27.90;51.20;;;;;;4994262;28;20420;-77
2023/05/23 10:45:15;;;;;;;4.70;3.17;;;27.90;51.30;;;;;;4987430;28;20443;-77
2023/05/23 10:47:43;;;;;;;4.13;3.73;;;27.80;51.30;;;;;;4994192;28;20446;-77
2023/05/23 10:50:17;;;;;;;5.10;3.27;;;27.70;51.50;;;;;;4994245;28;20467;-76
2023/05/23 10:52:45;;;;;;;6.13;3.80;;;27.70;51.80;;;;;;4994306;28;20425;-76
2023/05/23 10:55:14;;;;;;;4.57;3.10;;;27.80;51.70;;;;;;4993790;28;20447;-76
2023/05/23 10:57:42;;;;;;;3.70;3.30;;;28.10;51.70;;;;;;4993682;28;20500;-76
2023/05/23 11:00:14;;;;;;;4.70;3.73;;;28.30;51.00;;;;;;4994185;28;20514;-76
2023/05/23 11:02:59;;;;;;;2.70;2.50;;;28.30;50.40;;;;;;4993562;28;20495;-76
2023/05/23 11:05:30;;;;;;;4.17;3.37;;;28.20;50.40;;;;;;4993679;28;20473;-78
2023/05/23 11:08:07;;;;;;;4.07;2.90;;;28.10;50.60;;;;;;4993365;28;20454;-78
2023/05/23 11:10:56;;;;;;;5.23;3.20;;;28.30;51.30;;;;;;4993429;28;20486;-77
2023/05/23 11:13:25;;;;;;;4.17;3.07;;;28.60;50.60;;;;;;4987953;28;20445;-77
2023/05/23 11:15:53;;;;;;;4.90;3.23;;;29.30;50.40;;;;;;4993318;28;20424;-77
2023/05/23 11:18:23;;;;;;;5.60;2.87;;;29.40;48.50;;;;;;4992977;28;20439;-78
2023/05/23 11:20:54;;;;;;;3.60;3.30;;;29.50;48.80;;;;;;4993461;28;20479;-77
2023/05/23 11:23:22;;;;;;;4.40;3.27;;;29.70;47.40;;;;;;4993368;28;20428;-77
2023/05/23 11:25:52;;;;;;;4.73;2.87;;;29.70;46.80;;;;;;4993271;28;20453;-77
2023/05/23 11:28:20;;;;;;;3.00;2.70;;;29.40;46.70;;;;;;4993776;28;20519;-77
2023/05/23 11:30:48;;;;;;;4.00;3.30;;;29.30;47.10;;;;;;4993522;28;20420;-77
2023/05/23 11:33:17;;;;;;;3.80;3.33;;;29.20;47.00;;;;;;4993147;28;20420;-76
2023/05/23 11:35:46;;;;;;;4.33;3.17;;;29.20;47.50;;;;;;4993298;28;20503;-77
2023/05/23 11:38:15;;;;;;;4.97;3.37;;;29.30;46.90;;;;;;4993179;28;20461;-78
2023/05/23 11:40:46;;;;;;;5.50;3.50;;;29.00;46.80;;;;;;4993072;28;20494;-78
2023/05/23 11:43:16;;;;;;;4.93;3.23;;;29.00;47.20;;;;;;4992468;28;20870;-78
2023/05/23 11:45:45;;;;;;;3.40;2.70;;;28.80;47.40;;;;;;4993090;28;20434;-77
2023/05/23 11:48:15;;;;;;;6.07;3.50;;;29.00;47.50;;;;;;4992852;28;20468;-78
2023/05/23 11:50:47;;;;;;;4.33;2.90;;;29.00;47.10;;;;;;4992757;28;20453;-77
2023/05/23 11:53:19;;;;;;;5.37;3.50;;;29.00;47.00;;;;;;4992786;28;20429;-78
2023/05/23 11:55:51;;;;;;;3.33;2.73;;;28.90;46.90;;;;;;4992907;28;20446;-78
2023/05/23 11:58:20;;;;;;;3.83;3.20;;;28.80;47.20;;;;;;4992802;28;20469;-77
2023/05/23 12:00:49;;;;;;;2.80;2.60;;;28.80;47.30;;;;;;4992981;28;20484;-78
2023/05/23 12:03:18;;;;;;;4.37;3.40;;;28.70;47.20;;;;;;4992742;28;20457;-78
2023/05/23 12:05:47;;;;;;;2.97;2.73;;;28.80;47.50;;;;;;4992545;28;20422;-78
2023/05/23 12:08:17;;;;;;;4.17;2.90;;;28.80;47.50;;;;;;4992825;28;20450;-78
2023/05/23 12:10:52;;;;;;;3.00;2.70;;;28.70;47.40;;;;;;4993104;28;20507;-78
2023/05/23 12:13:20;;;;;;;3.90;3.33;;;29.30;46.90;;;;;;4992614;28;20460;-77
2023/05/23 12:15:49;;;;;;;4.00;2.87;;;29.10;46.30;;;;;;4992243;28;20446;-77
2023/05/23 12:18:19;;;;;;;3.20;2.83;;;29.20;47.60;;;;;;4992263;28;20451;-78
2023/05/23 12:20:49;;;;;;;3.87;3.17;;;29.50;46.00;;;;;;4992317;28;20424;-77
2023/05/23 12:23:22;;;;;;;3.17;2.60;;;29.50;45.80;;;;;;4992546;28;20431;-77
2023/05/23 12:25:51;;;;;;;4.77;2.70;;;29.30;45.80;;;;;;4991875;28;20455;-79
2023/05/23 12:28:19;;;;;;;3.30;2.93;;;29.40;47.20;;;;;;4992453;28;20453;-77
2023/05/23 12:30:48;;;;;;;4.03;2.80;;;29.60;45.90;;;;;;4991326;28;20449;-77
2023/05/23 12:33:18;;;;;;;3.00;2.70;;;29.60;45.60;;;;;;4992159;28;20428;-77
2023/05/23 12:35:46;;;;;;;4.07;2.90;;;29.50;45.50;;;;;;4993634;28;20432;-77
2023/05/23 12:38:17;;;;;;;3.30;2.63;;;30.00;45.90;;;;;;4991833;28;20427;-76
2023/05/23 12:40:47;;;;;;;7.10;3.10;;;29.80;44.80;;;;;;4991636;28;20450;-76
2023/05/23 12:43:15;;;;;;;5.97;3.43;;;29.60;44.90;;;;;;4984372;28;20445;-76
2023/05/23 12:45:43;;;;;;;6.40;3.60;;;29.50;45.40;;;;;;4991853;28;20445;-76
2023/05/23 12:48:11;;;;;;;13.57;3.73;;;29.70;45.70;;;;;;4992147;28;20488;-77
2023/05/23 12:50:39;;;;;;;8.47;3.70;;;29.60;44.10;;;;;;4991976;28;20416;-78
2023/05/23 12:53:07;;;;;;;6.93;3.70;;;29.80;44.80;;;;;;4991732;28;20528;-77
2023/05/23 12:55:36;;;;;;;6.90;3.70;;;30.00;43.30;;;;;;4991336;28;20444;-77
2023/05/23 12:58:05;;;;;;;5.97;3.73;;;29.70;43.40;;;;;;4991589;28;20474;-76